createdAt,value
2016-06-07T00:00:01.163Z,17.38
2016-06-07T00:01:01.228Z,17.25
2016-06-07T00:02:01.247Z,17.18
2016-06-07T00:03:01.281Z,17.23
2016-06-07T00:04:01.313Z,17.04
2016-06-07T00:05:01.380Z,17.1
2016-06-07T00:06:02.226Z,17.11
2016-06-07T00:07:01.494Z,17.1
2016-06-07T00:08:01.496Z,17.08
2016-06-07T00:09:01.577Z,17.13
2016-06-07T00:10:01.580Z,17.1
2016-06-07T00:11:01.615Z,17.1
2016-06-07T00:12:01.665Z,17.04
2016-06-07T00:13:01.698Z,17
2016-06-07T00:14:01.731Z,17.03
2016-06-07T00:15:01.828Z,16.95
2016-06-07T00:16:01.862Z,16.95
2016-06-07T00:17:01.865Z,17.03
2016-06-07T00:18:01.914Z,16.9
2016-06-07T00:19:01.979Z,16.86
2016-06-07T00:20:01.998Z,16.96
2016-06-07T00:21:02.157Z,16.9
2016-06-07T00:22:02.082Z,16.86
2016-06-07T00:23:02.162Z,16.8
2016-06-07T00:24:02.164Z,16.83
2016-06-07T00:25:02.214Z,16.8
2016-06-07T00:26:02.233Z,16.73
2016-06-07T00:27:02.297Z,16.8
2016-06-07T00:28:02.176Z,16.71
2016-06-07T00:29:02.367Z,16.74
2016-06-07T00:30:02.416Z,16.75
2016-06-07T00:31:02.465Z,16.71
2016-06-07T00:32:02.468Z,16.7
2016-06-07T00:33:02.533Z,16.74
2016-06-07T00:34:02.614Z,16.63
2016-06-07T00:35:02.601Z,16.65
2016-06-07T00:36:02.650Z,16.62
2016-06-07T00:37:02.731Z,16.62
2016-06-07T00:38:02.766Z,16.58
2016-06-07T00:39:02.768Z,16.63
2016-06-07T00:40:02.817Z,16.7
2016-06-07T00:41:02.851Z,16.73
2016-06-07T00:42:02.948Z,16.68
2016-06-07T00:43:02.935Z,16.71
2016-06-07T00:44:02.984Z,16.63
2016-06-07T00:45:03.049Z,16.6
2016-06-07T00:46:02.912Z,16.63
2016-06-07T00:47:03.102Z,16.63
2016-06-07T00:48:03.151Z,16.67
2016-06-07T00:49:03.248Z,16.6
2016-06-07T00:50:03.234Z,16.7
2016-06-07T00:51:03.987Z,16.7
2016-06-07T00:52:03.303Z,16.71
2016-06-07T00:53:03.212Z,16.62
2016-06-07T00:54:03.386Z,16.62
2016-06-07T00:55:03.436Z,16.58
2016-06-07T00:56:03.470Z,16.55
2016-06-07T00:57:03.567Z,16.56
2016-06-07T00:58:03.553Z,16.5
2016-06-07T00:59:03.650Z,16.53
2016-06-07T01:00:03.684Z,16.52
2016-06-07T01:01:03.686Z,16.44
2016-06-07T01:02:03.720Z,16.49
2016-06-07T01:03:03.786Z,16.35
2016-06-07T01:04:03.835Z,16.34
2016-06-07T01:05:03.900Z,16.33
2016-06-07T01:06:03.762Z,16.35
2016-06-07T01:07:03.780Z,16.3
2016-06-07T01:08:04.033Z,16.3
2016-06-07T01:09:04.021Z,16.15
2016-06-07T01:10:04.055Z,16.22
2016-06-07T01:11:04.088Z,16.26
2016-06-07T01:12:04.168Z,16.18
2016-06-07T01:13:04.187Z,16.16
2016-06-07T01:14:04.221Z,16.16
2016-06-07T01:15:04.287Z,16.03
2016-06-07T01:16:04.367Z,16.06
2016-06-07T01:17:04.339Z,16.04
2016-06-07T01:18:04.388Z,16.03
2016-06-07T01:19:04.281Z,16.04
2016-06-07T01:20:04.487Z,16.11
2016-06-07T01:21:04.365Z,16
2016-06-07T01:22:05.149Z,15.97
2016-06-07T01:23:04.589Z,15.92
2016-06-07T01:24:04.639Z,15.99
2016-06-07T01:25:04.672Z,16.01
2016-06-07T01:26:04.723Z,15.93
2016-06-07T01:27:04.772Z,16.04
2016-06-07T01:28:04.790Z,16
2016-06-07T01:29:04.839Z,15.97
2016-06-07T01:30:04.905Z,15.97
2016-06-07T01:31:04.955Z,16
2016-06-07T01:32:04.801Z,16.04
2016-06-07T01:33:05.007Z,16.11
2016-06-07T01:34:05.056Z,16.09
2016-06-07T01:35:05.074Z,16.15
2016-06-07T01:36:04.969Z,15.99
2016-06-07T01:37:05.674Z,16.09
2016-06-07T01:38:05.255Z,16.12
2016-06-07T01:39:05.241Z,16.15
2016-06-07T01:40:05.291Z,16.12
2016-06-07T01:41:05.388Z,15.99
2016-06-07T01:42:05.375Z,16
2016-06-07T01:43:05.393Z,15.99
2016-06-07T01:44:05.301Z,16.11
2016-06-07T01:45:05.476Z,16.06
2016-06-07T01:46:05.542Z,16.06
2016-06-07T01:47:05.559Z,16.07
2016-06-07T01:48:05.644Z,16.09
2016-06-07T01:49:05.678Z,15.93
2016-06-07T01:50:05.773Z,16.09
2016-06-07T01:51:05.479Z,15.92
2016-06-07T01:52:06.042Z,15.97
2016-06-07T01:53:05.902Z,16
2016-06-07T01:54:05.941Z,15.86
2016-06-07T01:55:05.996Z,15.96
2016-06-07T01:56:06.099Z,16.01
2016-06-07T01:57:06.075Z,15.93
2016-06-07T01:58:06.114Z,15.93
2016-06-07T01:59:06.181Z,15.93
2016-06-07T02:00:06.231Z,15.89
2016-06-07T02:01:06.252Z,15.85
2016-06-07T02:02:06.304Z,15.86
2016-06-07T02:03:06.339Z,15.88
2016-06-07T02:04:06.437Z,15.88
2016-06-07T02:05:06.425Z,15.92
2016-06-07T02:06:07.350Z,15.88
2016-06-07T02:07:06.556Z,15.86
2016-06-07T02:08:06.545Z,15.79
2016-06-07T02:09:06.595Z,15.78
2016-06-07T02:10:06.676Z,15.68
2016-06-07T02:11:06.662Z,15.76
2016-06-07T02:12:06.713Z,15.61
2016-06-07T02:13:06.778Z,15.6
2016-06-07T02:14:06.797Z,15.64
2016-06-07T02:15:06.846Z,15.61
2016-06-07T02:16:06.880Z,15.7
2016-06-07T02:17:06.960Z,15.54
2016-06-07T02:18:06.980Z,15.61
2016-06-07T02:19:07.013Z,15.6
2016-06-07T02:20:07.047Z,15.63
2016-06-07T02:21:06.971Z,15.59
2016-06-07T02:22:07.693Z,15.66
2016-06-07T02:23:07.165Z,15.6
2016-06-07T02:24:07.230Z,15.57
2016-06-07T02:25:07.248Z,15.56
2016-06-07T02:26:07.282Z,15.48
2016-06-07T02:27:07.316Z,15.52
2016-06-07T02:28:07.381Z,15.45
2016-06-07T02:29:07.415Z,15.45
2016-06-07T02:30:07.448Z,15.45
2016-06-07T02:31:07.498Z,15.41
2016-06-07T02:32:07.533Z,15.27
2016-06-07T02:33:07.567Z,15.36
2016-06-07T02:34:07.460Z,15.3
2016-06-07T02:35:07.666Z,15.31
2016-06-07T02:36:07.919Z,15.3
2016-06-07T02:37:08.202Z,15.2
2016-06-07T02:38:07.767Z,15.21
2016-06-07T02:39:07.880Z,15.23
2016-06-07T02:40:07.867Z,15.2
2016-06-07T02:41:07.900Z,15.2
2016-06-07T02:42:07.935Z,15.08
2016-06-07T02:43:08.125Z,15.05
2016-06-07T02:44:08.033Z,15.13
2016-06-07T02:45:08.052Z,15.08
2016-06-07T02:46:08.149Z,15.15
2016-06-07T02:47:07.994Z,15.03
2016-06-07T02:48:08.185Z,15.05
2016-06-07T02:49:08.265Z,15.08
2016-06-07T02:50:08.285Z,15.09
2016-06-07T02:51:08.319Z,15.08
2016-06-07T02:52:08.757Z,15.17
2016-06-07T02:53:08.418Z,15.2
2016-06-07T02:54:08.420Z,15.23
2016-06-07T02:55:08.470Z,15.13
2016-06-07T02:56:08.660Z,15.24
2016-06-07T02:57:08.584Z,15.15
2016-06-07T02:58:08.587Z,15.15
2016-06-07T02:59:08.637Z,15.21
2016-06-07T03:00:08.671Z,15.03
2016-06-07T03:01:08.720Z,15.08
2016-06-07T03:02:08.739Z,15.01
2016-06-07T03:03:08.787Z,15.12
2016-06-07T03:04:08.837Z,15.11
2016-06-07T03:05:08.887Z,14.98
2016-06-07T03:06:08.780Z,14.98
2016-06-07T03:07:09.002Z,14.94
2016-06-07T03:08:09.020Z,14.93
2016-06-07T03:09:09.023Z,14.99
2016-06-07T03:10:09.072Z,15.01
2016-06-07T03:11:09.138Z,15.02
2016-06-07T03:12:09.171Z,14.95
2016-06-07T03:13:09.189Z,14.94
2016-06-07T03:14:09.239Z,14.93
2016-06-07T03:15:09.319Z,14.87
2016-06-07T03:16:09.322Z,14.87
2016-06-07T03:17:09.357Z,14.86
2016-06-07T03:18:09.407Z,14.9
2016-06-07T03:19:09.285Z,14.87
2016-06-07T03:20:09.474Z,14.81
2016-06-07T03:21:09.711Z,14.88
2016-06-07T03:22:09.605Z,14.87
2016-06-07T03:23:09.591Z,14.88
2016-06-07T03:24:09.641Z,14.93
2016-06-07T03:25:09.535Z,14.86
2016-06-07T03:26:09.804Z,14.84
2016-06-07T03:27:09.759Z,14.84
2016-06-07T03:28:09.809Z,14.86
2016-06-07T03:29:09.873Z,14.94
2016-06-07T03:30:09.767Z,14.84
2016-06-07T03:31:09.942Z,14.86
2016-06-07T03:32:09.960Z,14.91
2016-06-07T03:33:10.040Z,14.84
2016-06-07T03:34:10.043Z,14.88
2016-06-07T03:35:10.092Z,14.98
2016-06-07T03:36:10.142Z,14.88
2016-06-07T03:37:10.520Z,14.84
2016-06-07T03:38:10.210Z,14.87
2016-06-07T03:39:10.244Z,14.91
2016-06-07T03:40:10.169Z,14.91
2016-06-07T03:41:10.344Z,14.88
2016-06-07T03:42:10.377Z,14.91
2016-06-07T03:43:10.411Z,14.9
2016-06-07T03:44:10.461Z,14.81
2016-06-07T03:45:10.510Z,14.9
2016-06-07T03:46:10.528Z,14.86
2016-06-07T03:47:10.578Z,14.91
2016-06-07T03:48:10.612Z,14.98
2016-06-07T03:49:10.661Z,14.9
2016-06-07T03:50:10.727Z,14.86
2016-06-07T03:51:10.746Z,14.87
2016-06-07T03:52:11.123Z,14.84
2016-06-07T03:53:10.657Z,14.9
2016-06-07T03:54:10.894Z,14.91
2016-06-07T03:55:10.912Z,14.94
2016-06-07T03:56:10.930Z,14.93
2016-06-07T03:57:10.995Z,14.98
2016-06-07T03:58:11.076Z,14.91
2016-06-07T03:59:11.063Z,14.87
2016-06-07T04:00:11.098Z,14.9
2016-06-07T04:01:11.163Z,15.01
2016-06-07T04:02:11.009Z,14.99
2016-06-07T04:03:11.231Z,14.98
2016-06-07T04:04:11.264Z,15.03
2016-06-07T04:05:11.314Z,15.08
2016-06-07T04:06:11.926Z,15.06
2016-06-07T04:07:11.804Z,15.09
2016-06-07T04:08:11.416Z,15.02
2016-06-07T04:09:11.294Z,15.12
2016-06-07T04:10:11.515Z,15.09
2016-06-07T04:11:11.533Z,15.06
2016-06-07T04:12:11.598Z,15.08
2016-06-07T04:13:11.617Z,15.13
2016-06-07T04:14:11.683Z,15.15
2016-06-07T04:15:11.716Z,15.08
2016-06-07T04:16:11.796Z,15.05
2016-06-07T04:17:11.800Z,15.21
2016-06-07T04:18:11.834Z,15.23
2016-06-07T04:19:11.867Z,15.3
2016-06-07T04:20:11.948Z,15.28
2016-06-07T04:21:11.951Z,15.33
2016-06-07T04:22:12.407Z,15.28
2016-06-07T04:23:11.910Z,15.31
2016-06-07T04:24:12.069Z,15.42
2016-06-07T04:25:12.102Z,15.39
2016-06-07T04:26:12.151Z,15.48
2016-06-07T04:27:12.218Z,15.43
2016-06-07T04:28:12.235Z,15.49
2016-06-07T04:29:12.269Z,15.49
2016-06-07T04:30:12.334Z,15.49
2016-06-07T04:31:12.354Z,15.48
2016-06-07T04:32:12.402Z,15.54
2016-06-07T04:33:12.451Z,15.59
2016-06-07T04:34:12.518Z,15.6
2016-06-07T04:35:12.519Z,15.67
2016-06-07T04:36:12.570Z,15.68
2016-06-07T04:37:12.884Z,15.68
2016-06-07T04:38:12.715Z,15.67
2016-06-07T04:39:12.686Z,15.75
2016-06-07T04:40:12.737Z,15.74
2016-06-07T04:41:12.817Z,15.75
2016-06-07T04:42:12.648Z,15.82
2016-06-07T04:43:12.853Z,15.82
2016-06-07T04:44:12.889Z,15.92
2016-06-07T04:45:12.968Z,15.89
2016-06-07T04:46:12.971Z,15.94
2016-06-07T04:47:13.005Z,15.89
2016-06-07T04:48:13.086Z,15.97
2016-06-07T04:49:13.136Z,16
2016-06-07T04:50:13.013Z,16
2016-06-07T04:51:13.172Z,16.09
2016-06-07T04:52:13.080Z,16.14
2016-06-07T04:53:13.099Z,16.14
2016-06-07T04:54:13.290Z,16.18
2016-06-07T04:55:13.199Z,16.16
2016-06-07T04:56:13.388Z,16.34
2016-06-07T04:57:13.423Z,16.33
2016-06-07T04:58:13.457Z,16.31
2016-06-07T04:59:13.538Z,16.42
2016-06-07T05:00:13.634Z,16.4
2016-06-07T05:01:13.574Z,16.44
2016-06-07T05:02:13.623Z,16.42
2016-06-07T05:03:13.673Z,16.42
2016-06-07T05:04:13.707Z,16.55
2016-06-07T05:05:13.741Z,16.5
2016-06-07T05:06:13.791Z,16.56
2016-06-07T05:07:14.684Z,16.59
2016-06-07T05:08:13.812Z,16.55
2016-06-07T05:09:13.908Z,16.65
2016-06-07T05:10:13.958Z,16.75
2016-06-07T05:11:14.007Z,16.73
2016-06-07T05:12:14.041Z,16.75
2016-06-07T05:13:14.075Z,16.77
2016-06-07T05:14:14.125Z,16.86
2016-06-07T05:15:14.190Z,16.83
2016-06-07T05:16:14.192Z,16.89
2016-06-07T05:17:14.132Z,16.99
2016-06-07T05:18:14.308Z,16.99
2016-06-07T05:19:14.388Z,17.04
2016-06-07T05:20:14.672Z,17.04
2016-06-07T05:21:14.408Z,17.08
2016-06-07T05:22:14.522Z,17.07
2016-06-07T05:23:14.571Z,17.14
2016-06-07T05:24:14.824Z,17.18
2016-06-07T05:25:14.591Z,17.23
2016-06-07T05:26:14.657Z,17.14
2016-06-07T05:27:14.644Z,17.2
2016-06-07T05:28:14.694Z,17.22
2016-06-07T05:29:14.759Z,17.29
2016-06-07T05:30:15.011Z,17.29
2016-06-07T05:31:15.092Z,17.3
2016-06-07T05:32:14.860Z,17.3
2016-06-07T05:33:14.910Z,17.36
2016-06-07T05:34:14.804Z,17.29
2016-06-07T05:35:14.979Z,17.29
2016-06-07T05:36:15.028Z,17.41
2016-06-07T05:37:15.670Z,17.38
2016-06-07T05:38:15.112Z,17.35
2016-06-07T05:39:15.176Z,17.4
2016-06-07T05:40:15.367Z,17.41
2016-06-07T05:41:15.337Z,17.48
2016-06-07T05:42:15.340Z,17.5
2016-06-07T05:43:15.328Z,17.62
2016-06-07T05:44:15.346Z,17.55
2016-06-07T05:45:15.411Z,17.67
2016-06-07T05:46:15.430Z,17.67
2016-06-07T05:47:15.557Z,17.67
2016-06-07T05:48:15.356Z,17.67
2016-06-07T05:49:15.578Z,17.73
2016-06-07T05:50:15.611Z,17.7
2016-06-07T05:51:15.693Z,17.73
2016-06-07T05:52:15.930Z,17.82
2016-06-07T05:53:17.230Z,17.73
2016-06-07T05:54:15.764Z,17.82
2016-06-07T05:55:15.922Z,17.84
2016-06-07T05:56:15.847Z,17.85
2016-06-07T05:57:15.897Z,17.87
2016-06-07T05:58:16.150Z,17.85
2016-06-07T05:59:15.996Z,17.88
2016-06-07T06:00:16.185Z,17.85
2016-06-07T06:01:16.064Z,17.95
2016-06-07T06:02:16.113Z,18.07
2016-06-07T06:03:16.132Z,18.19
2016-06-07T06:04:16.259Z,18.46
2016-06-07T06:05:16.246Z,18.43
2016-06-07T06:06:16.265Z,18.57
2016-06-07T06:07:17.502Z,18.61
2016-06-07T06:08:16.504Z,18.62
2016-06-07T06:09:16.398Z,18.8
2016-06-07T06:10:16.432Z,18.9
2016-06-07T06:11:16.512Z,18.86
2016-06-07T06:12:16.562Z,18.97
2016-06-07T06:13:16.784Z,19.05
2016-06-07T06:14:16.598Z,19.1
2016-06-07T06:15:16.679Z,19.25
2016-06-07T06:16:16.697Z,19.35
2016-06-07T06:17:16.732Z,19.5
2016-06-07T06:18:16.797Z,19.51
2016-06-07T06:19:16.878Z,19.57
2016-06-07T06:20:16.849Z,19.58
2016-06-07T06:21:18.430Z,19.69
2016-06-07T06:22:23.605Z,19.69
2016-06-07T06:23:25.576Z,19.7
2016-06-07T06:24:26.500Z,19.86
2016-06-07T06:25:18.878Z,19.76
2016-06-07T06:26:17.131Z,19.73
2016-06-07T06:27:18.993Z,19.8
2016-06-07T06:28:20.808Z,19.84
2016-06-07T06:29:17.232Z,19.8
2016-06-07T06:30:20.158Z,19.76
2016-06-07T06:31:20.613Z,19.83
2016-06-07T06:32:23.349Z,19.84
2016-06-07T06:33:21.728Z,20.03
2016-06-07T06:34:17.449Z,20.06
2016-06-07T06:35:18.045Z,20.06
2016-06-07T06:36:20.751Z,20
2016-06-07T06:37:22.020Z,19.93
2016-06-07T06:38:20.898Z,19.93
2016-06-07T06:39:17.650Z,19.93
2016-06-07T06:40:17.700Z,19.72
2016-06-07T06:41:17.733Z,19.72
2016-06-07T06:42:23.471Z,19.66
2016-06-07T06:43:17.818Z,19.66
2016-06-07T06:44:24.398Z,19.68
2016-06-07T06:45:23.478Z,19.68
2016-06-07T06:46:17.967Z,19.58
2016-06-07T06:47:18.000Z,19.47
2016-06-07T06:48:18.033Z,19.54
2016-06-07T06:49:18.131Z,19.53
2016-06-07T06:50:20.867Z,19.61
2016-06-07T06:51:18.151Z,19.65
2016-06-07T06:52:18.060Z,19.78
2016-06-07T06:53:20.157Z,19.91
2016-06-07T06:54:23.081Z,20.05
2016-06-07T06:55:18.333Z,20.06
2016-06-07T06:56:18.369Z,20.12
2016-06-07T06:57:18.433Z,20.24
2016-06-07T06:58:23.499Z,20.35
2016-06-07T06:59:22.235Z,20.38
2016-06-07T07:00:18.549Z,20.46
2016-06-07T07:01:25.382Z,20.47
2016-06-07T07:02:18.510Z,20.42
2016-06-07T07:03:18.855Z,20.42
2016-06-07T07:04:18.765Z,20.56
2016-06-07T07:05:18.861Z,20.54
2016-06-07T07:06:18.973Z,20.54
2016-06-07T07:07:19.023Z,20.51
2016-06-07T07:08:19.696Z,20.47
2016-06-07T07:09:18.965Z,20.46
2016-06-07T07:10:19.015Z,20.41
2016-06-07T07:11:19.220Z,20.53
2016-06-07T07:12:19.145Z,20.54
2016-06-07T07:13:19.101Z,20.43
2016-06-07T07:14:19.354Z,20.35
2016-06-07T07:15:19.200Z,20.31
2016-06-07T07:16:19.687Z,20.21
2016-06-07T07:17:20.425Z,20.25
2016-06-07T07:18:19.302Z,20.28
2016-06-07T07:19:19.383Z,20.31
2016-06-07T07:20:20.135Z,20.34
2016-06-07T07:21:19.514Z,20.46
2016-06-07T07:22:19.766Z,20.47
2016-06-07T07:23:19.611Z,20.5
2016-06-07T07:24:19.865Z,20.54
2016-06-07T07:25:19.555Z,20.62
2016-06-07T07:26:19.652Z,20.69
2016-06-07T07:27:19.810Z,20.59
2016-06-07T07:28:19.750Z,20.54
2016-06-07T07:29:20.550Z,20.71
2016-06-07T07:30:19.850Z,20.76
2016-06-07T07:31:19.899Z,20.77
2016-06-07T07:32:21.027Z,20.74
2016-06-07T07:33:21.296Z,20.77
2016-06-07T07:34:21.611Z,20.84
2016-06-07T07:35:20.207Z,20.87
2016-06-07T07:36:20.210Z,20.96
2016-06-07T07:37:21.494Z,21.01
2016-06-07T07:38:20.152Z,21.02
2016-06-07T07:39:20.201Z,20.98
2016-06-07T07:40:20.267Z,21.01
2016-06-07T07:41:20.521Z,21.01
2016-06-07T07:42:21.132Z,21.02
2016-06-07T07:43:20.385Z,21.08
2016-06-07T07:44:20.418Z,21.11
2016-06-07T07:45:20.515Z,21.16
2016-06-07T07:46:20.814Z,21.14
2016-06-07T07:47:20.599Z,21.11
2016-06-07T07:48:20.617Z,21.05
2016-06-07T07:49:20.666Z,21.16
2016-06-07T07:50:20.716Z,21.17
2016-06-07T07:51:21.047Z,21.19
2016-06-07T07:52:21.159Z,21.39
2016-06-07T07:53:21.521Z,21.5
2016-06-07T07:54:21.477Z,21.56
2016-06-07T07:55:21.730Z,21.67
2016-06-07T07:56:22.044Z,21.72
2016-06-07T07:57:20.985Z,21.72
2016-06-07T07:58:21.050Z,21.76
2016-06-07T07:59:21.272Z,21.78
2016-06-07T08:00:21.133Z,21.78
2016-06-07T08:01:21.433Z,21.97
2016-06-07T08:02:21.233Z,22.19
2016-06-07T08:03:21.391Z,22.2
2016-06-07T08:04:21.316Z,22.16
2016-06-07T08:05:21.396Z,22.2
2016-06-07T08:06:21.868Z,22.27
2016-06-07T08:07:23.825Z,22.28
2016-06-07T08:08:22.874Z,22.32
2016-06-07T08:09:21.752Z,22.44
2016-06-07T08:10:21.582Z,22.52
2016-06-07T08:11:21.663Z,22.6
2016-06-07T08:12:21.651Z,22.38
2016-06-07T08:13:21.950Z,22.53
2016-06-07T08:14:22.765Z,22.62
2016-06-07T08:15:22.001Z,22.6
2016-06-07T08:16:22.067Z,22.53
2016-06-07T08:17:22.132Z,22.69
2016-06-07T08:18:22.557Z,22.57
2016-06-07T08:19:22.467Z,22.68
2016-06-07T08:20:22.390Z,22.65
2016-06-07T08:21:22.533Z,22.67
2016-06-07T08:22:23.239Z,22.67
2016-06-07T08:23:23.853Z,22.57
2016-06-07T08:24:23.730Z,22.65
2016-06-07T08:25:23.357Z,22.65
2016-06-07T08:26:22.313Z,22.65
2016-06-07T08:27:22.363Z,22.67
2016-06-07T08:28:22.630Z,22.67
2016-06-07T08:29:22.556Z,22.78
2016-06-07T08:30:23.011Z,22.92
2016-06-07T08:31:22.670Z,23.11
2016-06-07T08:32:23.313Z,23.14
2016-06-07T08:33:23.113Z,23.26
2016-06-07T08:34:23.459Z,23.43
2016-06-07T08:35:23.571Z,23.35
2016-06-07T08:36:23.059Z,23.38
2016-06-07T08:37:23.515Z,23.45
2016-06-07T08:38:23.454Z,23.58
2016-06-07T08:39:23.207Z,23.68
2016-06-07T08:40:25.850Z,23.58
2016-06-07T08:41:23.151Z,23.55
2016-06-07T08:42:23.090Z,23.55
2016-06-07T08:43:23.031Z,23.67
2016-06-07T08:44:23.204Z,23.55
2016-06-07T08:45:24.817Z,23.55
2016-06-07T08:46:22.929Z,23.53
2016-06-07T08:47:23.104Z,23.67
2016-06-07T08:48:24.403Z,23.71
2016-06-07T08:49:23.625Z,23.8
2016-06-07T08:50:24.158Z,23.68
2016-06-07T08:51:23.631Z,23.7
2016-06-07T08:52:23.976Z,23.68
2016-06-07T08:53:24.104Z,23.67
2016-06-07T08:54:23.919Z,23.75
2016-06-07T08:55:24.422Z,23.71
2016-06-07T08:56:23.628Z,23.7
2016-06-07T08:57:24.147Z,23.76
2016-06-07T08:58:23.789Z,23.75
2016-06-07T08:59:23.761Z,23.77
2016-06-07T09:00:23.827Z,23.85
2016-06-07T09:01:23.688Z,23.89
2016-06-07T09:02:23.863Z,24
2016-06-07T09:03:24.100Z,24.08
2016-06-07T09:04:23.977Z,24.01
2016-06-07T09:05:24.058Z,24.05
2016-06-07T09:06:24.999Z,23.87
2016-06-07T09:07:25.641Z,23.83
2016-06-07T09:08:26.973Z,23.75
2016-06-07T09:09:25.272Z,23.72
2016-06-07T09:10:24.931Z,23.72
2016-06-07T09:11:27.997Z,23.83
2016-06-07T09:12:30.030Z,23.86
2016-06-07T09:13:24.658Z,23.92
2016-06-07T09:14:26.239Z,23.87
2016-06-07T09:15:25.132Z,23.95
2016-06-07T09:16:26.198Z,23.83
2016-06-07T09:17:25.934Z,23.87
2016-06-07T09:18:27.515Z,23.95
2016-06-07T09:19:26.378Z,24
2016-06-07T09:20:26.364Z,24.02
2016-06-07T09:21:25.305Z,24.16
2016-06-07T09:22:27.042Z,24.13
2016-06-07T09:23:26.950Z,24.1
2016-06-07T09:24:25.234Z,24.17
2016-06-07T09:25:25.456Z,24.27
2016-06-07T09:26:26.225Z,24.38
2016-06-07T09:27:27.353Z,24.63
2016-06-07T09:28:26.230Z,24.59
2016-06-07T09:29:26.779Z,24.63
2016-06-07T09:30:26.219Z,24.79
2016-06-07T09:31:27.161Z,24.76
2016-06-07T09:32:25.788Z,24.75
2016-06-07T09:33:26.916Z,24.69
2016-06-07T09:34:26.950Z,24.71
2016-06-07T09:35:26.546Z,24.76
2016-06-07T09:36:27.469Z,24.83
2016-06-07T09:37:27.394Z,24.83
2016-06-07T09:38:26.882Z,24.77
2016-06-07T09:39:26.806Z,24.76
2016-06-07T09:40:30.449Z,24.71
2016-06-07T09:41:30.390Z,24.9
2016-06-07T09:42:26.674Z,24.94
2016-06-07T09:43:26.473Z,25
2016-06-07T09:44:26.741Z,24.97
2016-06-07T09:45:26.509Z,25.01
2016-06-07T09:46:26.732Z,25.06
2016-06-07T09:47:27.031Z,24.98
2016-06-07T09:48:28.268Z,25.12
2016-06-07T09:49:36.724Z,25.05
2016-06-07T09:50:30.195Z,25.1
2016-06-07T09:51:30.229Z,25.15
2016-06-07T09:52:29.717Z,25.17
2016-06-07T09:53:32.203Z,25.2
2016-06-07T09:54:33.503Z,25.2
2016-06-07T09:55:35.584Z,25.24
2016-06-07T09:56:31.508Z,25.32
2016-06-07T09:57:30.308Z,25.2
2016-06-07T09:58:34.561Z,25.3
2016-06-07T09:59:29.922Z,25.35
2016-06-07T10:00:30.550Z,25.35
2016-06-07T10:01:35.616Z,25.39
2016-06-07T10:02:30.649Z,25.38
2016-06-07T10:03:29.855Z,25.42
2016-06-07T10:04:31.342Z,25.38
2016-06-07T10:05:31.908Z,25.49
2016-06-07T10:06:31.957Z,25.47
2016-06-07T10:07:30.413Z,25.57
2016-06-07T10:08:31.728Z,25.5
2016-06-07T10:09:31.028Z,25.62
2016-06-07T10:10:32.827Z,25.65
2016-06-07T10:11:32.688Z,25.57
2016-06-07T10:12:30.832Z,25.68
2016-06-07T10:13:31.601Z,25.79
2016-06-07T10:14:29.947Z,25.74
2016-06-07T10:15:29.372Z,25.69
2016-06-07T10:16:32.827Z,25.91
2016-06-07T10:17:28.815Z,25.98
2016-06-07T10:18:48.365Z,25.99
2016-06-07T10:19:31.333Z,25.86
2016-06-07T10:20:30.275Z,26.11
2016-06-07T10:21:38.779Z,26.08
2016-06-07T10:22:30.388Z,26.08
2016-06-07T10:23:31.799Z,26.05
2016-06-07T10:24:30.879Z,26.11
2016-06-07T10:25:30.209Z,26.18
2016-06-07T10:26:31.400Z,26.18
2016-06-07T10:27:31.059Z,26.25
2016-06-07T10:28:33.812Z,26.11
2016-06-07T10:29:33.657Z,26.32
2016-06-07T10:30:30.035Z,26.18
2016-06-07T10:31:30.147Z,26.27
2016-06-07T10:32:31.510Z,26.39
2016-06-07T10:33:34.200Z,26.4
2016-06-07T10:34:29.656Z,26.5
2016-06-07T10:35:31.752Z,26.49
2016-06-07T10:36:30.817Z,26.4
2016-06-07T10:37:30.726Z,26.47
2016-06-07T10:38:31.853Z,26.49
2016-06-07T10:39:32.029Z,26.59
2016-06-07T10:40:34.344Z,26.62
2016-06-07T10:41:33.487Z,26.64
2016-06-07T10:42:30.256Z,26.74
2016-06-07T10:43:30.648Z,26.76
2016-06-07T10:44:30.230Z,26.91
2016-06-07T10:45:31.545Z,26.77
2016-06-07T10:46:31.969Z,26.73
2016-06-07T10:47:33.113Z,26.67
2016-06-07T10:48:31.365Z,26.49
2016-06-07T10:49:32.087Z,26.35
2016-06-07T10:50:31.183Z,26.21
2016-06-07T10:51:31.452Z,26.22
2016-06-07T10:52:31.782Z,26.32
2016-06-07T10:53:32.816Z,26.57
2016-06-07T10:54:31.943Z,26.89
2016-06-07T10:55:31.459Z,27.26
2016-06-07T10:56:31.368Z,27.57
2016-06-07T10:57:30.338Z,27.95
2016-06-07T10:58:31.121Z,28.48
2016-06-07T10:59:30.749Z,29.08
2016-06-07T11:00:29.462Z,29.78
2016-06-07T11:01:30.422Z,30.56
2016-06-07T11:02:30.680Z,31.27
2016-06-07T11:03:30.877Z,31.92
2016-06-07T11:04:29.822Z,32.52
2016-06-07T11:05:31.202Z,33.07
2016-06-07T11:06:30.284Z,33.6
2016-06-07T11:07:31.492Z,33.9
2016-06-07T11:08:29.935Z,34.29
2016-06-07T11:09:30.065Z,34.89
2016-06-07T11:10:30.083Z,35.47
2016-06-07T11:11:30.602Z,36.15
2016-06-07T11:12:31.137Z,36.58
2016-06-07T11:13:30.423Z,37.12
2016-06-07T11:14:30.268Z,37.67
2016-06-07T11:15:30.788Z,38.12
2016-06-07T11:16:30.932Z,38.24
2016-06-07T11:17:30.575Z,38.1
2016-06-07T11:18:30.563Z,38.04
2016-06-07T11:19:30.550Z,37.81
2016-06-07T11:20:30.490Z,37.64
2016-06-07T11:21:30.743Z,37.2
2016-06-07T11:22:30.745Z,36.77
2016-06-07T11:23:31.545Z,36.31
2016-06-07T11:24:30.750Z,35.77
2016-06-07T11:25:30.925Z,35.44
2016-06-07T11:26:30.975Z,35.07
2016-06-07T11:27:31.212Z,35.07
2016-06-07T11:28:31.091Z,35.21
2016-06-07T11:29:31.186Z,35.44
2016-06-07T11:30:31.252Z,35.6
2016-06-07T11:31:31.285Z,35.89
2016-06-07T11:32:31.352Z,35.92
2016-06-07T11:33:31.416Z,35.73
2016-06-07T11:34:31.466Z,35.63
2016-06-07T11:35:31.499Z,35.5
2016-06-07T11:36:31.580Z,35.33
2016-06-07T11:37:31.692Z,35.25
2016-06-07T11:38:32.757Z,35.15
2016-06-07T11:39:31.729Z,35.21
2016-06-07T11:40:31.793Z,35.45
2016-06-07T11:41:31.859Z,35.79
2016-06-07T11:42:31.940Z,35.91
2016-06-07T11:43:31.959Z,36.03
2016-06-07T11:44:32.024Z,36
2016-06-07T11:45:32.136Z,36.27
2016-06-07T11:46:32.154Z,36.52
2016-06-07T11:47:32.203Z,36.67
2016-06-07T11:48:32.284Z,36.92
2016-06-07T11:49:32.350Z,37.19
2016-06-07T11:50:32.509Z,37.33
2016-06-07T11:51:32.746Z,37.31
2016-06-07T11:52:32.530Z,37.26
2016-06-07T11:53:33.033Z,37.29
2016-06-07T11:54:32.894Z,37.35
2016-06-07T11:55:32.538Z,37.36
2016-06-07T11:56:33.024Z,37.46
2016-06-07T11:57:32.997Z,37.35
2016-06-07T11:58:33.452Z,37.31
2016-06-07T11:59:33.017Z,37.43
2016-06-07T12:00:33.005Z,37.5
2016-06-07T12:01:33.366Z,37.48
2016-06-07T12:02:33.385Z,37.48
2016-06-07T12:03:33.684Z,37.64
2016-06-07T12:04:33.233Z,37.59
2016-06-07T12:05:33.424Z,37.7
2016-06-07T12:06:33.349Z,37.85
2016-06-07T12:07:33.836Z,37.96
2016-06-07T12:08:34.229Z,38.01
2016-06-07T12:09:33.669Z,38.1
2016-06-07T12:10:33.734Z,38.05
2016-06-07T12:11:33.893Z,37.99
2016-06-07T12:12:33.958Z,37.96
2016-06-07T12:13:33.836Z,37.89
2016-06-07T12:14:33.917Z,37.76
2016-06-07T12:15:33.857Z,37.68
2016-06-07T12:16:34.063Z,37.64
2016-06-07T12:17:34.097Z,37.74
2016-06-07T12:18:34.240Z,37.9
2016-06-07T12:19:34.134Z,37.89
2016-06-07T12:20:34.167Z,38.08
2016-06-07T12:21:34.311Z,38.15
2016-06-07T12:22:34.517Z,38.2
2016-06-07T12:23:34.770Z,38.24
2016-06-07T12:24:34.522Z,38.12
2016-06-07T12:25:34.665Z,37.78
2016-06-07T12:26:34.684Z,37.43
2016-06-07T12:27:34.874Z,37.05
2016-06-07T12:28:34.673Z,36.75
2016-06-07T12:29:34.707Z,36.51
2016-06-07T12:30:34.772Z,36.38
2016-06-07T12:31:35.275Z,36.23
2016-06-07T12:32:34.872Z,35.99
2016-06-07T12:33:35.218Z,35.84
2016-06-07T12:34:35.049Z,35.76
2016-06-07T12:35:34.895Z,35.7
2016-06-07T12:36:35.460Z,35.6
2016-06-07T12:37:35.244Z,35.6
2016-06-07T12:38:35.231Z,35.69
2016-06-07T12:39:35.124Z,35.79
2016-06-07T12:40:35.955Z,35.73
2016-06-07T12:41:35.396Z,35.57
2016-06-07T12:42:35.508Z,35.48
2016-06-07T12:43:35.542Z,35.29
2016-06-07T12:44:35.576Z,35.2
2016-06-07T12:45:35.765Z,35.21
2016-06-07T12:46:36.081Z,35.3
2016-06-07T12:47:35.787Z,35.4
2016-06-07T12:48:35.884Z,35.45
2016-06-07T12:49:35.902Z,35.54
2016-06-07T12:50:36.045Z,35.57
2016-06-07T12:51:36.251Z,35.58
2016-06-07T12:52:36.332Z,35.6
2016-06-07T12:53:36.756Z,35.67
2016-06-07T12:54:37.103Z,35.77
2016-06-07T12:55:36.214Z,35.67
2016-06-07T12:56:40.545Z,35.79